Time;durP1;ratioP1;P1;durP2;ratioP2;P2;SDS_P1;SDS_P2;PMS_P1;PMS_P2;Temp;Humidity;BMP_temperature;BMP_pressure;BME280_temperature;BME280_humidity;BME280_pressure;Samples;Min_cycle;Max_cycle;Signal;HPM_P1;HPM_P2
2022/10/21 00:01:56;;;;;;;16.52;7.95;;;12.00;99.90;;;;;;5112424;28;20386;-49
2022/10/21 00:04:22;;;;;;;14.18;7.60;;;11.90;99.90;;;;;;5111829;28;20059;-50
2022/10/21 00:06:49;;;;;;;21.45;9.15;;;11.90;99.90;;;;;;5112196;28;20066;-48
2022/10/21 00:09:16;;;;;;;18.48;8.48;;;11.90;99.90;;;;;;5104201;28;20080;-48
2022/10/21 00:11:42;;;;;;;17.00;9.30;;;11.90;99.90;;;;;;5112387;28;20067;-47
2022/10/21 00:14:09;;;;;;;20.20;9.68;;;11.90;99.90;;;;;;5113010;28;20082;-48
2022/10/21 00:16:36;;;;;;;16.23;9.32;;;11.90;99.90;;;;;;5109725;28;20118;-49
2022/10/21 00:19:03;;;;;;;19.63;10.35;;;11.90;99.90;;;;;;5113248;28;20078;-47
2022/10/21 00:21:29;;;;;;;18.67;10.27;;;11.90;99.90;;;;;;5111876;28;20074;-47
2022/10/21 00:23:56;;;;;;;21.13;9.85;;;11.90;99.90;;;;;;5112987;28;20459;-47
2022/10/21 00:26:23;;;;;;;17.75;10.10;;;11.90;99.90;;;;;;5093490;28;20064;-48
2022/10/21 00:28:54;;;;;;;14.35;8.77;;;11.90;99.90;;;;;;5127542;27;20035;-47
2022/10/21 00:31:21;;;;;;;15.90;8.60;;;12.00;99.90;;;;;;5124154;27;20071;-51
2022/10/21 00:33:48;;;;;;;;;;;12.00;99.90;;;;;;5106465;28;20112;-52
2022/10/21 00:36:15;;;;;;;15.07;7.35;;;12.10;99.90;;;;;;5128971;27;19949;-48
2022/10/21 00:38:44;;;;;;;18.15;8.40;;;12.20;99.90;;;;;;5133411;27;20064;-48
2022/10/21 00:41:12;;;;;;;16.65;8.93;;;12.20;99.90;;;;;;5113370;27;20035;-48
2022/10/21 00:44:00;;;;;;;24.95;9.65;;;12.30;99.90;;;;;;5112158;28;20032;-48
2022/10/21 00:46:32;;;;;;;13.10;8.38;;;12.20;99.90;;;;;;5091907;28;20110;-47
2022/10/21 00:49:01;;;;;;;14.73;8.68;;;12.30;99.90;;;;;;5106274;28;20067;-48
2022/10/21 00:51:29;;;;;;;13.00;7.90;;;12.30;99.90;;;;;;5112515;28;20093;-48
2022/10/21 00:53:57;;;;;;;14.88;8.73;;;12.30;99.90;;;;;;5110920;28;20067;-48
2022/10/21 00:56:27;;;;;;;15.15;8.32;;;12.30;99.90;;;;;;5111494;28;20377;-48
2022/10/21 00:58:56;;;;;;;16.23;8.27;;;12.30;99.90;;;;;;5107765;27;20063;-48
2022/10/21 01:01:23;;;;;;;16.00;8.52;;;12.20;99.90;;;;;;5104697;27;20044;-48
2022/10/21 01:03:50;;;;;;;14.10;7.80;;;12.20;99.90;;;;;;5114435;27;20036;-48
2022/10/21 01:06:20;;;;;;;22.08;7.45;;;12.30;99.90;;;;;;5113789;27;20067;-49
2022/10/21 01:08:47;;;;;;;17.67;8.32;;;12.30;99.90;;;;;;5118169;27;20090;-48
2022/10/21 01:11:16;;;;;;;;;;;12.20;99.90;;;;;;5120353;27;20040;-48
2022/10/21 01:13:49;;;;;;;;;;;12.20;99.90;;;;;;5091507;28;19923;-50
2022/10/21 01:16:43;;;;;;;21.38;8.75;;;12.10;99.90;;;;;;5112358;28;20014;-48
2022/10/21 01:19:47;;;;;;;17.83;9.18;;;12.10;99.90;;;;;;5077822;28;20047;-48
2022/10/21 01:22:55;;;;;;;20.17;9.85;;;12.00;99.90;;;;;;5111397;28;20092;-49
2022/10/21 01:25:34;;;;;;;16.23;10.43;;;12.00;99.90;;;;;;5094379;28;20109;-48
2022/10/21 01:28:09;;;;;;;17.23;10.43;;;11.90;99.90;;;;;;5109477;28;20063;-49
2022/10/21 01:30:40;;;;;;;16.00;9.68;;;11.90;99.90;;;;;;5112227;28;20071;-51
2022/10/21 01:33:29;;;;;;;19.35;9.57;;;11.90;99.90;;;;;;5110619;28;20122;-48
2022/10/21 01:36:32;;;;;;;19.00;9.98;;;11.90;99.90;;;;;;5105806;28;20063;-49
2022/10/21 01:39:21;;;;;;;17.00;9.07;;;11.90;99.90;;;;;;5109815;28;20524;-47
2022/10/21 01:42:00;;;;;;;16.77;8.45;;;12.00;99.90;;;;;;5109912;28;20040;-49
2022/10/21 01:44:33;;;;;;;19.10;8.93;;;12.00;99.90;;;;;;5107770;28;20071;-48
2022/10/21 01:47:05;;;;;;;19.00;9.32;;;12.00;99.90;;;;;;5105943;28;20067;-49
2022/10/21 01:49:40;;;;;;;17.73;8.57;;;12.00;99.90;;;;;;5110929;28;20527;-48
2022/10/21 01:52:07;;;;;;;16.13;8.02;;;12.00;99.90;;;;;;5110978;28;20122;-48
2022/10/21 01:54:39;;;;;;;19.35;7.95;;;12.00;99.90;;;;;;5100351;28;20039;-48
2022/10/21 01:57:08;;;;;;;15.23;7.20;;;12.00;99.90;;;;;;5123291;22;20043;-49
2022/10/21 01:59:38;;;;;;;12.00;7.28;;;12.00;99.90;;;;;;5109778;28;20071;-51
2022/10/21 02:02:08;;;;;;;20.88;7.10;;;12.00;99.90;;;;;;5099331;28;20067;-52
2022/10/21 02:04:37;;;;;;;19.73;6.65;;;12.10;99.90;;;;;;5110026;28;20051;-50
2022/10/21 02:07:04;;;;;;;9.75;6.80;;;12.10;99.90;;;;;;5109756;28;20070;-53
2022/10/21 02:09:31;;;;;;;11.88;6.18;;;12.10;99.90;;;;;;5121288;28;20067;-51
2022/10/21 02:12:04;;;;;;;17.10;6.68;;;12.10;99.90;;;;;;5110412;28;20036;-50
2022/10/21 02:14:47;;;;;;;15.88;5.88;;;12.20;99.90;;;;;;5111056;28;20046;-51
2022/10/21 02:17:17;;;;;;;14.18;5.32;;;12.20;99.90;;;;;;5107991;28;20470;-49
2022/10/21 02:19:45;;;;;;;10.95;5.03;;;12.30;99.90;;;;;;5109153;28;20101;-49
2022/10/21 02:22:17;;;;;;;12.57;4.97;;;12.20;99.90;;;;;;5109344;28;20113;-49
2022/10/21 02:24:57;;;;;;;16.67;5.07;;;12.20;99.90;;;;;;5109970;28;20553;-52
2022/10/21 02:27:23;;;;;;;10.27;4.90;;;12.30;99.90;;;;;;5094639;28;20047;-49
2022/10/21 02:29:55;;;;;;;9.90;4.38;;;12.30;99.90;;;;;;5110189;28;20039;-48
2022/10/21 02:32:35;;;;;;;11.90;4.22;;;12.30;99.90;;;;;;5111068;28;20117;-49
2022/10/21 02:35:38;;;;;;;7.70;4.07;;;12.30;99.90;;;;;;5109489;28;20073;-50
2022/10/21 02:38:23;;;;;;;11.85;4.18;;;12.30;99.90;;;;;;5107340;28;20403;-49
2022/10/21 02:40:55;;;;;;;11.02;4.90;;;12.30;99.90;;;;;;5110316;28;20071;-49
2022/10/21 02:43:32;;;;;;;17.75;5.93;;;12.30;99.90;;;;;;5111105;28;20056;-50
2022/10/21 02:46:00;;;;;;;16.90;6.30;;;12.30;99.90;;;;;;5108835;28;20444;-48
2022/10/21 02:48:31;;;;;;;15.52;7.35;;;12.20;99.90;;;;;;5110317;28;20051;-50
2022/10/21 02:50:57;;;;;;;16.67;6.68;;;12.30;99.90;;;;;;5109535;28;20111;-51
2022/10/21 02:53:24;;;;;;;17.33;7.18;;;12.20;99.90;;;;;;5110115;28;20043;-51
2022/10/21 02:55:51;;;;;;;21.38;8.15;;;12.20;99.90;;;;;;5100874;28;20076;-49
2022/10/21 02:58:18;;;;;;;14.85;7.05;;;12.20;99.90;;;;;;5110392;28;20649;-52
2022/10/21 03:00:44;;;;;;;13.63;6.45;;;12.20;99.90;;;;;;5110364;28;20047;-49
2022/10/21 03:03:12;;;;;;;11.48;6.22;;;12.10;99.90;;;;;;5101847;28;20108;-49
2022/10/21 03:05:39;;;;;;;16.70;6.40;;;12.10;99.90;;;;;;5109677;28;20043;-52
2022/10/21 03:08:05;;;;;;;13.02;7.07;;;12.10;99.90;;;;;;5109160;28;20074;-51
2022/10/21 03:10:32;;;;;;;13.48;8.57;;;12.00;99.90;;;;;;5106038;28;20081;-51
2022/10/21 03:12:59;;;;;;;12.73;7.05;;;12.00;99.90;;;;;;5110050;28;20070;-52
2022/10/21 03:15:26;;;;;;;15.50;7.68;;;12.00;99.90;;;;;;5105388;28;20039;-51
2022/10/21 03:17:52;;;;;;;22.35;8.38;;;12.00;99.90;;;;;;5108515;28;20550;-49
2022/10/21 03:20:19;;;;;;;19.05;8.27;;;12.00;99.90;;;;;;5109167;28;20067;-50
2022/10/21 03:22:46;;;;;;;20.65;8.73;;;12.10;99.90;;;;;;5108499;28;20122;-50
2022/10/21 03:25:13;;;;;;;16.98;7.07;;;12.10;99.90;;;;;;5085779;28;20403;-52
2022/10/21 03:27:39;;;;;;;13.55;7.22;;;12.10;99.90;;;;;;5109422;28;20055;-49
2022/10/21 03:30:07;;;;;;;14.07;6.90;;;12.10;99.90;;;;;;5113804;28;20040;-49
2022/10/21 03:32:34;;;;;;;;;;;12.20;99.90;;;;;;5112655;28;20136;-50
2022/10/21 03:35:01;;;;;;;11.30;6.75;;;12.20;99.90;;;;;;5113545;28;19923;-48
2022/10/21 03:37:27;;;;;;;12.60;6.93;;;12.20;99.90;;;;;;5109246;28;20071;-51
2022/10/21 03:39:54;;;;;;;13.52;7.13;;;12.20;99.90;;;;;;5113602;28;20539;-51
2022/10/21 03:42:21;;;;;;;19.10;6.75;;;12.20;99.90;;;;;;5110797;28;20073;-50
2022/10/21 03:44:47;;;;;;;13.70;7.22;;;12.20;99.90;;;;;;5113184;28;20768;-53
2022/10/21 03:47:15;;;;;;;;;;;12.20;99.90;;;;;;5122479;27;20452;-49
2022/10/21 03:49:43;;;;;;;10.90;6.57;;;12.20;99.90;;;;;;5118042;27;19926;-49
2022/10/21 03:52:09;;;;;;;13.52;7.55;;;12.20;99.90;;;;;;5112998;27;20063;-52
2022/10/21 03:54:36;;;;;;;19.25;8.70;;;12.20;99.90;;;;;;5113113;28;20070;-48
2022/10/21 03:57:03;;;;;;;14.00;6.85;;;12.20;99.90;;;;;;5109618;28;20067;-52
2022/10/21 03:59:30;;;;;;;12.85;6.35;;;12.20;99.90;;;;;;5112999;28;20035;-50
2022/10/21 04:01:56;;;;;;;18.25;8.00;;;12.20;99.90;;;;;;5111823;28;20040;-49
2022/10/21 04:04:23;;;;;;;12.45;6.80;;;12.20;99.90;;;;;;5113308;28;20064;-52
2022/10/21 04:06:50;;;;;;;11.88;5.90;;;12.20;99.90;;;;;;5111680;28;20388;-51
2022/10/21 04:09:17;;;;;;;19.48;7.30;;;12.20;99.90;;;;;;5113688;28;20503;-51
2022/10/21 04:11:43;;;;;;;13.73;5.47;;;12.30;99.90;;;;;;5112299;28;20067;-50
2022/10/21 04:14:10;;;;;;;15.32;5.85;;;12.20;99.90;;;;;;5117392;27;20035;-51
2022/10/21 04:16:41;;;;;;;12.05;6.15;;;12.20;99.90;;;;;;5112077;28;20097;-53
2022/10/21 04:19:10;;;;;;;11.57;5.45;;;12.20;99.90;;;;;;5111720;28;20512;-49
2022/10/21 04:21:36;;;;;;;11.02;5.97;;;12.20;99.90;;;;;;5124999;27;20483;-51
2022/10/21 04:24:03;;;;;;;17.05;5.88;;;12.20;99.90;;;;;;5113316;27;20440;-49
2022/10/21 04:26:30;;;;;;;11.35;5.13;;;12.30;99.90;;;;;;5111891;28;20445;-50
2022/10/21 04:28:57;;;;;;;10.88;4.65;;;12.30;99.90;;;;;;5110865;28;20089;-51
2022/10/21 04:31:24;;;;;;;13.82;6.72;;;12.30;99.90;;;;;;5110812;28;20488;-51
2022/10/21 04:33:57;;;;;;;16.80;7.43;;;12.20;99.90;;;;;;5109859;28;20031;-51
2022/10/21 04:36:24;;;;;;;17.23;7.35;;;12.10;99.90;;;;;;5111452;28;20047;-50
2022/10/21 04:38:51;;;;;;;15.40;7.45;;;12.10;99.90;;;;;;5111682;28;20068;-52
2022/10/21 04:41:18;;;;;;;20.45;7.60;;;12.10;99.90;;;;;;5112422;28;20441;-49
2022/10/21 04:43:44;;;;;;;15.45;5.75;;;12.00;99.90;;;;;;5111882;28;20032;-51
2022/10/21 04:46:15;;;;;;;12.48;5.90;;;11.90;99.90;;;;;;5111986;28;20118;-49
2022/10/21 04:48:42;;;;;;;14.82;6.00;;;11.80;99.90;;;;;;5110932;28;20032;-50
2022/10/21 04:51:09;;;;;;;15.55;6.80;;;11.80;99.90;;;;;;5112043;28;20101;-50
2022/10/21 04:53:36;;;;;;;13.73;6.97;;;11.80;99.90;;;;;;5111586;28;20466;-52
2022/10/21 04:56:03;;;;;;;14.43;6.45;;;11.70;99.90;;;;;;5106813;28;20079;-52
2022/10/21 04:58:30;;;;;;;;;;;11.80;99.90;;;;;;5088463;27;20460;-50
2022/10/21 05:00:57;;;;;;;12.63;6.03;;;11.80;99.90;;;;;;5109911;28;20459;-50
2022/10/21 05:03:24;;;;;;;13.02;5.25;;;11.80;99.90;;;;;;5102553;28;20074;-49
2022/10/21 05:05:51;;;;;;;14.57;5.88;;;11.70;99.90;;;;;;5111776;28;20063;-50
2022/10/21 05:08:19;;;;;;;18.13;6.13;;;11.70;99.90;;;;;;5110800;28;20120;-49
2022/10/21 05:10:46;;;;;;;13.05;5.13;;;11.70;99.90;;;;;;5109825;28;20039;-52
2022/10/21 05:13:13;;;;;;;16.00;6.65;;;11.60;99.90;;;;;;5110596;28;20325;-49
2022/10/21 05:15:40;;;;;;;10.38;5.30;;;11.60;99.90;;;;;;5110765;28;20063;-49
2022/10/21 05:18:06;;;;;;;11.00;4.80;;;11.60;99.90;;;;;;5110684;28;20111;-48
2022/10/21 05:20:33;;;;;;;11.45;5.65;;;11.60;99.90;;;;;;5105623;28;20059;-48
2022/10/21 05:23:00;;;;;;;11.85;5.75;;;11.60;99.90;;;;;;5108917;28;20067;-52
2022/10/21 05:25:27;;;;;;;9.70;5.05;;;11.60;99.90;;;;;;5109348;28;20035;-49
2022/10/21 05:28:00;;;;;;;13.38;5.65;;;11.60;99.90;;;;;;5109250;28;20040;-49
2022/10/21 05:30:26;;;;;;;18.73;6.70;;;11.40;99.90;;;;;;5109303;28;20122;-52
2022/10/21 05:32:53;;;;;;;11.27;6.22;;;11.40;99.90;;;;;;5109754;28;20089;-50
2022/10/21 05:35:20;;;;;;;10.82;5.75;;;11.40;99.90;;;;;;5091042;28;20067;-50
2022/10/21 05:37:47;;;;;;;12.25;5.45;;;11.40;99.90;;;;;;5110515;28;20055;-52
2022/10/21 05:40:13;;;;;;;11.23;4.47;;;11.40;99.90;;;;;;5103759;28;20048;-52
2022/10/21 05:42:40;;;;;;;9.27;4.70;;;11.40;99.90;;;;;;5110462;28;20462;-50
2022/10/21 05:45:08;;;;;;;16.73;6.35;;;11.40;99.90;;;;;;5110643;28;20569;-50
2022/10/21 05:47:35;;;;;;;17.23;6.57;;;11.40;99.90;;;;;;5109471;28;20072;-49
2022/10/21 05:50:02;;;;;;;15.68;7.47;;;11.40;99.90;;;;;;5109730;28;20036;-49
2022/10/21 05:52:28;;;;;;;13.45;7.22;;;11.50;99.90;;;;;;5109662;28;20051;-49
2022/10/21 05:54:55;;;;;;;17.05;7.45;;;11.50;99.90;;;;;;5110361;28;20499;-49
2022/10/21 05:57:22;;;;;;;23.92;8.63;;;11.60;99.90;;;;;;5109499;28;20071;-49
2022/10/21 05:59:49;;;;;;;19.35;8.70;;;11.60;99.90;;;;;;5086741;28;20130;-48
2022/10/21 06:02:16;;;;;;;18.48;9.68;;;11.60;99.90;;;;;;5110595;28;20040;-49
2022/10/21 06:04:42;;;;;;;17.42;9.18;;;11.60;99.90;;;;;;5109883;28;20583;-50
2022/10/21 06:07:09;;;;;;;15.88;7.38;;;11.70;99.90;;;;;;5109337;28;20122;-49
2022/10/21 06:09:36;;;;;;;17.27;7.88;;;11.70;99.90;;;;;;5109867;28;20511;-49
2022/10/21 06:12:03;;;;;;;19.65;7.07;;;11.70;99.90;;;;;;5110241;28;20040;-48
2022/10/21 06:14:30;;;;;;;10.32;6.38;;;11.60;99.90;;;;;;5110473;28;20067;-51
2022/10/21 06:16:57;;;;;;;10.88;6.15;;;11.70;99.90;;;;;;5109257;28;20031;-50
2022/10/21 06:19:23;;;;;;;19.15;6.90;;;11.70;99.90;;;;;;5110733;28;20043;-51
2022/10/21 06:21:50;;;;;;;8.75;6.07;;;11.60;99.90;;;;;;5110652;28;20067;-49
2022/10/21 06:24:17;;;;;;;13.65;6.38;;;11.70;99.90;;;;;;5108345;28;20043;-50
2022/10/21 06:26:44;;;;;;;13.93;6.15;;;11.70;99.90;;;;;;5110252;28;20070;-49
2022/10/21 06:29:10;;;;;;;17.38;8.73;;;11.80;99.90;;;;;;5110518;28;20039;-50
2022/10/21 06:31:37;;;;;;;21.25;8.10;;;11.80;99.90;;;;;;5106978;28;20446;-50
2022/10/21 06:34:04;;;;;;;19.25;7.93;;;11.80;99.90;;;;;;5110330;28;20040;-49
2022/10/21 06:36:31;;;;;;;12.63;6.78;;;11.80;99.90;;;;;;5109451;28;20052;-49
2022/10/21 06:38:57;;;;;;;16.67;7.68;;;11.80;99.90;;;;;;5106527;28;20560;-49
2022/10/21 06:41:24;;;;;;;15.45;8.02;;;11.90;99.90;;;;;;5108055;28;20067;-50
2022/10/21 06:43:51;;;;;;;11.48;7.30;;;12.00;99.90;;;;;;5110072;28;20507;-49
2022/10/21 06:46:18;;;;;;;13.63;7.30;;;12.10;99.90;;;;;;5110057;28;20085;-51
2022/10/21 06:48:45;;;;;;;14.18;7.25;;;12.00;99.90;;;;;;5106758;28;20427;-51
2022/10/21 06:51:21;;;;;;;17.02;6.50;;;12.10;99.90;;;;;;5110371;28;20039;-48
2022/10/21 06:53:55;;;;;;;11.57;6.35;;;12.20;99.90;;;;;;5110473;28;20036;-49
2022/10/21 06:56:24;;;;;;;14.48;7.00;;;12.30;99.90;;;;;;5108062;28;20043;-49
2022/10/21 06:58:52;;;;;;;15.60;7.20;;;12.30;99.90;;;;;;5110990;28;20043;-48
2022/10/21 07:01:22;;;;;;;17.27;8.27;;;12.40;99.90;;;;;;5112434;28;20071;-49
2022/10/21 07:04:08;;;;;;;18.67;7.95;;;12.40;99.90;;;;;;5110021;28;20035;-49
2022/10/21 07:06:35;;;;;;;18.27;7.10;;;12.50;99.90;;;;;;5113643;28;20055;-51
2022/10/21 07:09:03;;;;;;;15.20;6.15;;;12.60;99.90;;;;;;5113565;28;20044;-51
2022/10/21 07:11:30;;;;;;;17.58;6.45;;;12.70;99.90;;;;;;5112934;28;20036;-52
2022/10/21 07:13:59;;;;;;;18.48;7.22;;;12.70;99.90;;;;;;5108422;28;20066;-49
2022/10/21 07:16:32;;;;;;;11.52;6.55;;;12.70;99.90;;;;;;5114642;28;20067;-53
2022/10/21 07:18:58;;;;;;;18.15;6.78;;;12.80;99.90;;;;;;5112047;28;20092;-50
2022/10/21 07:21:27;;;;;;;19.77;6.72;;;12.70;99.90;;;;;;5114264;28;20078;-48
2022/10/21 07:23:55;;;;;;;19.00;6.97;;;12.80;99.90;;;;;;5107588;28;20061;-49
2022/10/21 07:26:27;;;;;;;11.95;6.45;;;12.90;99.90;;;;;;5114208;28;20039;-50
2022/10/21 07:28:57;;;;;;;15.73;6.38;;;12.80;99.90;;;;;;5113461;28;20039;-49
2022/10/21 07:31:24;;;;;;;14.93;6.70;;;12.90;99.90;;;;;;5112991;28;20051;-53
2022/10/21 07:33:51;;;;;;;85.60;30.85;;;12.90;99.90;;;;;;5107647;28;20043;-50
2022/10/21 07:36:24;;;;;;;15.25;7.88;;;13.00;99.90;;;;;;5113896;28;20105;-50
2022/10/21 07:38:53;;;;;;;13.07;6.50;;;13.00;99.90;;;;;;5113295;28;20097;-51
2022/10/21 07:41:26;;;;;;;17.50;6.63;;;13.20;99.90;;;;;;5106608;28;20124;-50
2022/10/21 07:43:54;;;;;;;16.65;5.53;;;13.20;99.90;;;;;;5112991;28;20071;-51
2022/10/21 07:46:20;;;;;;;;;;;13.40;99.90;;;;;;5114145;28;20044;-49
2022/10/21 07:48:48;;;;;;;16.23;7.20;;;13.40;99.90;;;;;;5111153;28;20038;-49
2022/10/21 07:51:19;;;;;;;14.45;6.57;;;13.50;99.90;;;;;;5113896;27;20035;-49
2022/10/21 07:53:49;;;;;;;16.25;6.68;;;13.50;99.90;;;;;;5124522;27;20070;-51
2022/10/21 07:56:19;;;;;;;14.93;5.93;;;13.50;99.90;;;;;;5112732;27;20064;-50
2022/10/21 08:02:16;;;;;;;14.00;6.45;;;13.70;99.90;;;;;;5125060;27;20071;-48
2022/10/21 08:04:43;;;;;;;14.45;5.93;;;13.70;99.90;;;;;;5133983;27;20074;-51
2022/10/21 08:07:09;;;;;;;11.20;5.78;;;13.70;99.90;;;;;;5140777;27;20043;-48
2022/10/21 08:09:39;;;;;;;22.40;7.68;;;13.70;99.90;;;;;;5099601;28;20096;-48
2022/10/21 08:12:06;;;;;;;13.95;7.70;;;13.70;99.90;;;;;;5108870;28;20035;-51
2022/10/21 08:14:38;;;;;;;14.27;6.38;;;13.70;99.90;;;;;;5108312;28;20092;-47
2022/10/21 08:17:05;;;;;;;14.20;6.53;;;13.80;99.90;;;;;;5101707;28;20093;-49
2022/10/21 08:19:32;;;;;;;15.48;6.25;;;13.80;99.90;;;;;;5112433;28;20104;-48
2022/10/21 08:21:59;;;;;;;20.75;8.60;;;13.90;99.90;;;;;;5112594;28;20047;-48
2022/10/21 08:24:27;;;;;;;14.13;6.72;;;13.80;99.90;;;;;;5102188;28;20092;-48
2022/10/21 08:26:53;;;;;;;;;;;13.90;99.90;;;;;;5112848;28;20039;-48
2022/10/21 08:29:20;;;;;;;15.77;7.18;;;13.80;99.90;;;;;;5112877;28;20455;-48
2022/10/21 08:31:47;;;;;;;12.23;5.97;;;13.90;99.90;;;;;;5109101;28;20055;-52
2022/10/21 08:34:13;;;;;;;14.93;6.45;;;13.80;99.90;;;;;;5109743;28;20070;-48
2022/10/21 08:36:40;;;;;;;14.52;6.85;;;13.80;99.90;;;;;;5093236;28;20093;-47
2022/10/21 08:39:07;;;;;;;22.52;6.47;;;13.90;99.90;;;;;;5112953;28;20105;-48
2022/10/21 08:42:04;;;;;;;19.13;6.95;;;13.90;99.90;;;;;;5108063;28;20068;-48
2022/10/21 08:44:40;;;;;;;16.45;6.32;;;13.80;99.90;;;;;;5096531;28;20032;-47
2022/10/21 08:47:19;;;;;;;15.00;6.22;;;13.80;99.90;;;;;;5112852;28;20071;-48
2022/10/21 08:49:59;;;;;;;19.95;6.75;;;13.90;99.90;;;;;;5098200;28;20065;-48
2022/10/21 08:52:48;;;;;;;14.18;6.28;;;13.90;99.90;;;;;;5112104;28;20040;-50
2022/10/21 08:55:22;;;;;;;13.95;7.07;;;14.00;99.90;;;;;;5111143;28;20071;-47
2022/10/21 08:57:52;;;;;;;16.27;6.55;;;14.00;99.90;;;;;;5091852;28;20032;-48
2022/10/21 09:00:27;;;;;;;16.60;6.55;;;14.00;99.90;;;;;;5103934;28;20047;-48
2022/10/21 09:02:54;;;;;;;14.65;6.40;;;14.10;99.90;;;;;;5112409;28;20071;-48
2022/10/21 09:05:45;;;;;;;12.48;6.35;;;14.20;99.90;;;;;;5108266;28;20415;-48
2022/10/21 09:08:29;;;;;;;18.42;7.07;;;14.20;99.90;;;;;;5111239;28;20044;-48
2022/10/21 09:11:12;;;;;;;16.50;5.70;;;14.30;99.90;;;;;;5111837;28;20047;-47
2022/10/21 09:14:19;;;;;;;19.70;7.03;;;14.30;99.90;;;;;;5091349;28;20032;-49
2022/10/21 09:16:51;;;;;;;19.08;7.07;;;14.50;99.90;;;;;;5112294;28;20516;-49
2022/10/21 09:19:35;;;;;;;21.67;6.78;;;14.70;99.90;;;;;;5110939;28;20040;-48
2022/10/21 09:22:10;;;;;;;12.30;6.80;;;14.70;99.90;;;;;;5100641;28;20068;-49
2022/10/21 09:25:15;;;;;;;18.70;7.00;;;14.70;99.90;;;;;;5100139;28;20055;-48
2022/10/21 09:27:42;;;;;;;12.38;6.47;;;14.80;99.90;;;;;;5104944;28;20078;-50
2022/10/21 09:30:22;;;;;;;14.30;6.13;;;14.90;99.90;;;;;;5092683;28;20485;-48
2022/10/21 09:32:54;;;;;;;16.80;6.85;;;15.00;99.90;;;;;;5098388;28;20434;-48
2022/10/21 09:35:43;;;;;;;23.00;5.95;;;15.00;99.90;;;;;;5111650;28;20047;-47
2022/10/21 09:38:19;;;;;;;13.13;6.30;;;15.10;99.90;;;;;;5110956;28;20035;-50
2022/10/21 09:40:48;;;;;;;19.02;6.35;;;15.30;99.90;;;;;;5109441;28;20496;-48
2022/10/21 09:43:19;;;;;;;17.70;6.45;;;15.30;99.90;;;;;;5100635;28;20046;-49
2022/10/21 09:45:46;;;;;;;12.15;5.70;;;15.40;99.90;;;;;;5106573;28;20051;-50
2022/10/21 09:48:19;;;;;;;14.57;6.13;;;15.50;99.90;;;;;;5102658;28;20063;-48
2022/10/21 09:51:09;;;;;;;11.38;5.57;;;15.50;99.90;;;;;;5111555;28;20043;-48
2022/10/21 09:53:49;;;;;;;16.92;7.38;;;15.60;99.90;;;;;;5109507;28;20092;-48
2022/10/21 09:56:22;;;;;;;12.10;5.60;;;15.70;99.90;;;;;;5111032;28;20047;-48
2022/10/21 09:59:10;;;;;;;14.93;6.00;;;15.70;99.90;;;;;;5098035;28;20466;-48
2022/10/21 10:01:38;;;;;;;;;;;15.70;99.90;;;;;;5110607;28;20492;-48
2022/10/21 10:04:25;;;;;;;23.38;8.15;;;15.60;99.90;;;;;;5098003;28;20280;-48
2022/10/21 10:06:51;;;;;;;13.85;6.43;;;15.80;99.90;;;;;;5097206;28;20084;-49
2022/10/21 10:09:27;;;;;;;14.25;6.28;;;15.90;99.90;;;;;;5110761;28;20039;-50
2022/10/21 10:12:14;;;;;;;11.18;5.35;;;16.10;99.90;;;;;;5110521;28;20074;-48
2022/10/21 10:14:44;;;;;;;9.82;4.38;;;16.30;99.90;;;;;;5101559;28;20404;-49
2022/10/21 10:17:28;;;;;;;12.65;5.25;;;16.30;99.90;;;;;;5100523;28;20067;-49
2022/10/21 10:20:03;;;;;;;11.75;4.93;;;16.40;99.90;;;;;;5106943;28;20452;-48
2022/10/21 10:22:42;;;;;;;11.63;4.47;;;16.40;99.90;;;;;;5110506;28;20071;-48
2022/10/21 10:25:12;;;;;;;14.15;5.40;;;16.50;99.90;;;;;;5107327;28;20496;-49
2022/10/21 10:27:49;;;;;;;10.18;5.05;;;16.50;99.90;;;;;;5110607;28;20078;-48
2022/10/21 10:30:17;;;;;;;14.82;4.78;;;16.40;99.90;;;;;;5109965;28;20100;-48
2022/10/21 10:32:45;;;;;;;20.17;8.10;;;16.30;99.90;;;;;;5103119;28;20393;-48
2022/10/21 10:35:33;;;;;;;12.35;6.30;;;16.20;99.90;;;;;;5103936;28;20396;-47
2022/10/21 10:38:01;;;;;;;21.95;7.05;;;16.20;99.90;;;;;;5115754;28;20047;-49
2022/10/21 10:40:32;;;;;;;24.20;9.15;;;16.30;99.90;;;;;;5114482;28;20411;-49
2022/10/21 10:43:05;;;;;;;13.38;5.40;;;16.40;99.90;;;;;;5113921;28;20102;-48
2022/10/21 10:45:32;;;;;;;11.93;5.07;;;16.60;99.90;;;;;;5100439;28;20044;-49
2022/10/21 10:48:04;;;;;;;18.20;5.80;;;16.60;99.90;;;;;;5111327;28;20130;-50
2022/10/21 10:50:37;;;;;;;11.23;3.92;;;16.80;99.90;;;;;;5114444;28;20510;-49
2022/10/21 10:53:33;;;;;;;11.98;4.43;;;16.90;99.90;;;;;;5115055;28;20789;-50
2022/10/21 10:56:23;;;;;;;14.05;3.97;;;17.00;99.90;;;;;;5100290;28;20500;-48
2022/10/21 10:59:15;;;;;;;15.93;4.18;;;17.00;99.90;;;;;;5100939;28;20475;-49
2022/10/21 11:02:08;;;;;;;12.43;5.70;;;16.90;99.90;;;;;;5094480;28;20067;-49
2022/10/21 11:04:48;;;;;;;16.15;5.85;;;16.70;99.90;;;;;;5083109;28;20056;-49
2022/10/21 11:07:32;;;;;;;17.88;6.18;;;16.60;99.90;;;;;;5108940;28;20114;-49
2022/10/21 11:10:07;;;;;;;16.85;6.63;;;16.40;99.90;;;;;;5113504;28;20088;-48
2022/10/21 11:12:34;;;;;;;17.83;5.75;;;16.30;99.90;;;;;;5114648;28;20035;-48
2022/10/21 11:15:00;;;;;;;19.02;7.28;;;16.30;99.90;;;;;;5107121;28;20568;-50
2022/10/21 11:17:39;;;;;;;10.30;5.20;;;16.20;99.90;;;;;;5113891;28;20043;-48
2022/10/21 11:20:18;;;;;;;14.82;5.75;;;16.30;99.90;;;;;;5110047;28;20116;-50
2022/10/21 11:23:32;;;;;;;9.77;4.65;;;16.40;99.90;;;;;;5102618;28;20051;-48
2022/10/21 11:26:13;;;;;;;16.17;4.75;;;16.40;99.90;;;;;;5100835;28;20039;-50
2022/10/21 11:28:54;;;;;;;24.67;10.00;;;16.30;99.90;;;;;;5113440;28;20070;-51
2022/10/21 11:31:42;;;;;;;15.52;5.93;;;16.40;99.90;;;;;;5088986;28;20040;-48
2022/10/21 11:34:56;;;;;;;18.63;5.25;;;16.30;99.90;;;;;;5109786;28;20046;-48
2022/10/21 11:37:48;;;;;;;13.05;5.20;;;16.30;99.90;;;;;;5111110;28;20487;-50
2022/10/21 11:40:40;;;;;;;14.13;5.35;;;16.30;99.90;;;;;;5108106;28;20139;-48
2022/10/21 11:43:40;;;;;;;13.80;5.45;;;16.30;99.90;;;;;;5110449;28;20063;-48
2022/10/21 11:46:13;;;;;;;14.70;5.50;;;16.50;99.90;;;;;;5093038;28;20082;-48
2022/10/21 11:48:58;;;;;;;8.30;4.82;;;16.70;99.90;;;;;;5102853;28;20043;-48
2022/10/21 11:51:51;;;;;;;11.80;4.85;;;17.00;99.90;;;;;;5110873;28;20085;-50
2022/10/21 11:54:26;;;;;;;11.77;4.68;;;17.30;99.90;;;;;;5100009;28;20056;-49
2022/10/21 11:57:10;;;;;;;11.45;4.55;;;17.50;99.90;;;;;;5103548;28;20442;-48
2022/10/21 12:00:03;;;;;;;10.82;4.88;;;17.70;99.90;;;;;;5110943;28;20155;-49
2022/10/21 12:02:44;;;;;;;14.38;5.72;;;17.90;99.90;;;;;;5106307;28;20059;-48
2022/10/21 12:05:47;;;;;;;11.68;5.35;;;17.90;99.90;;;;;;5110923;28;20445;-49
2022/10/21 12:08:26;;;;;;;10.18;4.60;;;17.90;99.90;;;;;;5099929;28;20051;-47
2022/10/21 12:11:10;;;;;;;8.98;4.97;;;17.80;99.90;;;;;;5090322;28;20082;-49
2022/10/21 12:13:48;;;;;;;12.02;5.28;;;17.70;99.90;;;;;;5108447;28;20098;-49
2022/10/21 12:16:31;;;;;;;16.90;5.10;;;17.60;99.90;;;;;;5104915;28;20063;-52
2022/10/21 12:19:03;;;;;;;15.40;4.68;;;17.60;99.90;;;;;;5109665;28;20070;-48
2022/10/21 12:21:34;;;;;;;10.52;5.03;;;17.60;99.90;;;;;;5110385;28;20039;-48
2022/10/21 12:24:27;;;;;;;16.85;5.07;;;17.50;99.90;;;;;;5110111;28;20039;-48
2022/10/21 12:27:25;;;;;;;11.15;5.18;;;17.50;99.90;;;;;;5106144;28;20071;-48
2022/10/21 12:30:01;;;;;;;8.95;5.03;;;17.60;99.90;;;;;;5105828;28;20039;-48
2022/10/21 12:32:39;;;;;;;9.55;5.20;;;17.50;99.90;;;;;;5110145;28;20512;-47
2022/10/21 12:35:12;;;;;;;16.80;7.10;;;17.40;99.90;;;;;;5107623;28;20040;-48
2022/10/21 12:38:17;;;;;;;61.72;16.33;;;17.40;99.90;;;;;;5105986;28;20036;-48
2022/10/21 12:40:44;;;;;;;19.85;8.15;;;17.40;99.90;;;;;;5108898;28;20039;-48
2022/10/21 12:43:26;;;;;;;11.43;5.55;;;17.50;99.90;;;;;;5108363;28;20036;-48
2022/10/21 12:46:10;;;;;;;20.52;5.70;;;17.60;99.90;;;;;;5105968;28;20407;-47
2022/10/21 12:48:44;;;;;;;12.68;4.85;;;17.70;99.90;;;;;;5112847;28;20129;-47
2022/10/21 12:51:23;;;;;;;15.00;5.53;;;17.80;99.90;;;;;;5102980;28;20067;-48
2022/10/21 12:53:54;;;;;;;14.98;4.18;;;17.80;99.90;;;;;;5104712;28;20465;-48
2022/10/21 12:56:29;;;;;;;10.98;4.20;;;17.80;99.90;;;;;;5111548;28;20039;-48
2022/10/21 12:59:01;;;;;;;12.80;3.88;;;17.90;99.90;;;;;;5102115;28;20097;-48
2022/10/21 13:01:44;;;;;;;10.13;4.03;;;17.90;99.90;;;;;;5104646;28;20048;-47
2022/10/21 13:04:37;;;;;;;12.20;4.72;;;17.90;99.90;;;;;;5111273;28;20047;-48
2022/10/21 13:07:14;;;;;;;7.03;3.83;;;18.10;99.90;;;;;;5108740;27;20369;-48
2022/10/21 13:09:41;;;;;;;15.98;3.67;;;18.20;99.90;;;;;;5110781;27;20040;-49
2022/10/21 13:12:07;;;;;;;6.57;3.50;;;18.20;99.90;;;;;;5116675;27;20100;-48
2022/10/21 13:14:45;;;;;;;9.63;3.63;;;18.20;99.90;;;;;;5103323;28;20032;-47